createdAt,value
2023-02-12T00:00:25.117Z,0.535096
2023-02-12T00:05:20.115Z,0.515502
2023-02-12T00:10:17.872Z,0.477590
2023-02-12T00:15:20.640Z,0.433348
2023-02-12T00:20:15.861Z,0.395115
2023-02-12T00:25:16.030Z,0.363076
2023-02-12T00:30:16.527Z,0.335610
2023-02-12T00:35:18.736Z,0.307909
2023-02-12T00:40:16.565Z,0.280506
2023-02-12T00:45:23.837Z,0.240990
2023-02-12T00:50:35.600Z,0.200109
2023-02-12T00:55:16.521Z,0.170094
2023-02-12T01:00:17.257Z,0.137179
2023-02-12T01:05:17.686Z,0.113778
2023-02-12T01:10:15.756Z,0.098246
2023-02-12T01:15:17.990Z,0.085541
2023-02-12T01:20:18.243Z,0.066172
2023-02-12T01:25:22.144Z,0.050325
2023-02-12T01:30:16.195Z,0.043129
2023-02-12T01:35:18.344Z,0.039357
2023-02-12T01:40:26.203Z,0.033855
2023-02-12T01:45:19.687Z,0.029454
2023-02-12T01:50:17.495Z,0.028455
2023-02-12T01:55:25.012Z,0.028786
2023-02-12T02:00:19.464Z,0.028410
2023-02-12T02:05:16.694Z,0.028104
2023-02-12T02:10:17.227Z,0.027766
2023-02-12T02:15:26.806Z,0.027049
2023-02-12T02:20:28.406Z,0.027776
2023-02-12T02:25:22.015Z,0.027058
2023-02-12T02:30:19.104Z,0.027091
2023-02-12T02:35:15.825Z,0.026358
2023-02-12T02:40:19.324Z,0.027197
2023-02-12T02:45:20.853Z,0.026613
2023-02-12T02:50:18.270Z,0.026469
2023-02-12T02:55:18.934Z,0.027686
2023-02-12T03:00:19.432Z,0.027596
2023-02-12T03:05:17.985Z,0.027190
2023-02-12T03:10:17.702Z,0.027655
2023-02-12T03:15:16.379Z,0.027881
2023-02-12T03:20:16.267Z,0.027915
2023-02-12T03:25:15.968Z,0.027751
2023-02-12T03:30:16.364Z,0.028024
2023-02-12T03:35:16.611Z,0.028056
2023-02-12T03:40:25.725Z,0.027633
2023-02-12T03:45:26.839Z,0.026968
2023-02-12T03:50:29.145Z,0.028275
2023-02-12T03:55:23.448Z,0.028385
2023-02-12T04:00:33.546Z,0.027791
2023-02-12T04:05:24.233Z,0.027830
2023-02-12T04:10:26.228Z,0.027766
2023-02-12T04:15:24.466Z,0.027836
2023-02-12T04:20:15.545Z,0.028488
2023-02-12T04:25:27.942Z,0.028557
2023-02-12T04:30:32.236Z,0.028041
2023-02-12T04:35:34.059Z,0.028000
2023-02-12T04:40:25.797Z,0.028853
2023-02-12T04:45:24.863Z,0.028045
2023-02-12T04:50:18.576Z,0.028717
2023-02-12T04:55:29.811Z,0.028875
2023-02-12T05:00:16.129Z,0.028152
2023-02-12T05:05:18.032Z,0.028449
2023-02-12T05:10:16.244Z,0.029118
2023-02-12T05:15:16.234Z,0.028897
2023-02-12T05:20:17.545Z,0.028121
2023-02-12T05:25:19.694Z,0.028275
2023-02-12T05:30:16.673Z,0.027596
2023-02-12T05:35:17.230Z,0.028248
2023-02-12T05:40:16.159Z,0.027455
2023-02-12T05:45:15.889Z,0.028492
2023-02-12T05:50:17.049Z,0.028285
2023-02-12T05:55:15.818Z,0.028443
2023-02-12T06:00:16.038Z,0.029237
2023-02-12T06:05:16.237Z,0.028197
2023-02-12T06:10:16.408Z,0.028667
2023-02-12T06:15:17.031Z,0.028715
2023-02-12T06:20:16.724Z,0.028314
2023-02-12T06:25:16.616Z,0.027111
2023-02-12T06:30:15.833Z,0.027083
2023-02-12T06:35:16.778Z,0.027093
2023-02-12T06:40:19.276Z,0.027532
2023-02-12T06:45:16.836Z,0.027771
2023-02-12T06:50:16.661Z,0.028077
2023-02-12T06:55:17.915Z,0.028583
2023-02-12T07:00:17.726Z,0.029372
2023-02-12T07:05:18.816Z,0.028314
2023-02-12T07:10:15.698Z,0.028515
2023-02-12T07:15:16.970Z,0.028086
2023-02-12T07:20:15.867Z,0.028155
2023-02-12T07:25:16.773Z,0.027456
2023-02-12T07:30:16.456Z,0.027532
2023-02-12T07:35:16.043Z,0.027984
2023-02-12T07:40:16.702Z,0.028107
2023-02-12T07:45:15.862Z,0.027933
2023-02-12T07:50:17.175Z,0.026787
2023-02-12T07:55:16.530Z,0.028073
2023-02-12T08:00:15.742Z,0.027192
2023-02-12T08:05:16.303Z,0.027411
2023-02-12T08:10:16.085Z,0.027411
2023-02-12T08:15:16.373Z,0.027884
2023-02-12T08:20:15.931Z,0.027468
2023-02-12T08:25:17.389Z,0.027564
2023-02-12T08:30:17.168Z,0.028260
2023-02-12T08:35:16.205Z,0.027644
2023-02-12T08:40:18.109Z,0.026933
2023-02-12T08:45:17.416Z,0.028460
2023-02-12T08:50:22.854Z,0.027748
2023-02-12T08:55:18.307Z,0.027494
2023-02-12T09:00:20.817Z,0.027475
2023-02-12T09:05:18.451Z,0.027858
2023-02-12T09:10:18.173Z,0.027494
2023-02-12T09:15:21.551Z,0.027550
2023-02-12T09:20:17.098Z,0.027426
2023-02-12T09:25:19.513Z,0.027011
2023-02-12T09:30:17.574Z,0.027238
2023-02-12T09:35:19.094Z,0.026976
2023-02-12T09:40:16.960Z,0.027351
2023-02-12T09:45:17.676Z,0.027945
2023-02-12T09:50:16.885Z,0.027574
2023-02-12T09:55:21.491Z,0.027893
2023-02-12T10:00:17.515Z,0.027267
2023-02-12T10:05:19.898Z,0.027820
2023-02-12T10:10:21.976Z,0.027369
2023-02-12T10:15:15.899Z,0.027996
2023-02-12T10:20:18.452Z,0.027917
2023-02-12T10:25:16.564Z,0.028570
2023-02-12T10:30:26.429Z,0.028767
2023-02-12T10:35:19.793Z,0.028919
2023-02-12T10:40:18.354Z,0.029136
2023-02-12T10:45:20.578Z,0.028380
2023-02-12T10:50:16.066Z,0.028115
2023-02-12T10:55:18.655Z,0.028268
2023-02-12T11:00:24.442Z,0.027123
2023-02-12T11:05:25.219Z,0.027432
2023-02-12T11:10:18.444Z,0.027426
2023-02-12T11:15:17.326Z,0.027419
2023-02-12T11:20:17.443Z,0.027383
2023-02-12T11:25:23.022Z,0.027556
2023-02-12T11:30:24.176Z,0.027849
2023-02-12T11:35:21.525Z,0.027606
2023-02-12T11:40:24.254Z,0.027757
2023-02-12T11:45:21.380Z,0.027652
2023-02-12T11:50:28.205Z,0.028298
2023-02-12T11:55:19.992Z,0.027576
2023-02-12T12:00:17.569Z,0.027119
2023-02-12T12:05:19.038Z,0.028764
2023-02-12T12:10:22.865Z,0.028207
2023-02-12T12:15:15.877Z,0.028585
2023-02-12T12:20:19.687Z,0.028283
2023-02-12T12:25:22.612Z,0.027988
2023-02-12T12:30:25.857Z,0.028298
2023-02-12T12:35:22.194Z,0.027127
2023-02-12T12:40:27.657Z,0.027469
2023-02-12T12:45:41.292Z,0.027644
2023-02-12T12:50:21.179Z,0.029053
2023-02-12T12:55:25.305Z,0.028343
2023-02-12T13:00:20.833Z,0.027888
2023-02-12T13:05:27.571Z,0.027443
2023-02-12T13:10:25.324Z,0.028128
2023-02-12T13:15:15.866Z,0.027815
2023-02-12T13:20:18.089Z,0.027904
2023-02-12T13:25:26.043Z,0.027589
2023-02-12T13:30:20.834Z,0.028020
2023-02-12T13:35:27.595Z,0.027956
2023-02-12T13:40:23.105Z,0.028392
2023-02-12T13:45:21.091Z,0.027562
2023-02-12T13:50:16.978Z,0.027845
2023-02-12T13:55:28.467Z,0.028810
2023-02-12T14:00:16.881Z,0.028245
2023-02-12T14:05:23.948Z,0.028616
2023-02-12T14:10:29.725Z,0.029070
2023-02-12T14:15:26.311Z,0.027131
2023-02-12T14:20:17.046Z,0.027587
2023-02-12T14:25:17.829Z,0.026933
2023-02-12T14:30:21.215Z,0.027661
2023-02-12T14:35:20.915Z,0.027748
2023-02-12T14:40:16.241Z,0.028195
2023-02-12T14:45:18.300Z,0.028875
2023-02-12T14:50:18.108Z,0.028449
2023-02-12T14:55:22.230Z,0.028124
2023-02-12T15:00:15.917Z,0.027938
2023-02-12T15:05:17.419Z,0.029303
2023-02-12T15:10:15.637Z,0.031993
2023-02-12T15:15:16.450Z,0.034984
2023-02-12T15:20:16.813Z,0.036658
2023-02-12T15:25:16.008Z,0.039293
2023-02-12T15:30:25.601Z,0.043835
2023-02-12T15:35:16.314Z,0.052088
2023-02-12T15:40:16.134Z,0.062996
2023-02-12T15:45:17.074Z,0.080652
2023-02-12T15:50:16.583Z,0.095888
2023-02-12T15:55:16.932Z,0.105218
2023-02-12T16:00:16.410Z,0.114989
2023-02-12T16:05:15.738Z,0.129008
2023-02-12T16:10:16.334Z,0.156582
2023-02-12T16:15:17.595Z,0.182102
2023-02-12T16:20:16.028Z,0.203909
2023-02-12T16:25:18.213Z,0.237716
2023-02-12T16:30:15.865Z,0.275140
2023-02-12T16:35:17.342Z,0.304587
2023-02-12T16:40:15.646Z,0.366252
2023-02-12T16:45:15.991Z,0.395529
2023-02-12T16:50:16.764Z,0.421940
2023-02-12T16:55:16.745Z,0.441090
2023-02-12T17:00:16.115Z,0.458956
2023-02-12T17:05:15.570Z,0.577730
2023-02-12T17:10:16.570Z,0.577362
2023-02-12T17:15:16.676Z,0.640298
2023-02-12T17:20:15.403Z,0.781371
2023-02-12T17:25:15.735Z,0.714633
2023-02-12T17:30:16.637Z,0.671032
2023-02-12T17:35:16.666Z,0.866432
2023-02-12T17:40:16.211Z,1.338216
2023-02-12T17:45:17.747Z,1.104225
2023-02-12T17:50:16.490Z,1.215913
2023-02-12T17:55:16.856Z,1.581777
2023-02-12T18:00:17.104Z,1.650871
2023-02-12T18:05:16.137Z,1.637615
2023-02-12T18:10:17.133Z,1.548663
2023-02-12T18:15:15.947Z,1.560075
2023-02-12T18:20:16.306Z,1.663264
2023-02-12T18:25:17.411Z,1.711688
2023-02-12T18:30:16.255Z,1.806154
2023-02-12T18:35:16.097Z,1.949776
2023-02-12T18:40:16.177Z,2.034428
2023-02-12T18:45:16.572Z,1.933701
2023-02-12T18:50:16.221Z,1.244788
2023-02-12T18:55:20.729Z,1.753935
2023-02-12T19:00:16.273Z,1.799393
2023-02-12T19:05:16.365Z,1.829173
2023-02-12T19:10:16.523Z,1.972305
2023-02-12T19:15:18.219Z,2.020023
2023-02-12T19:20:20.947Z,2.045454
2023-02-12T19:25:16.311Z,2.068603
2023-02-12T19:30:16.718Z,2.078640
2023-02-12T19:35:16.873Z,2.192844
2023-02-12T19:40:16.497Z,2.235570
2023-02-12T19:45:16.496Z,2.234533
2023-02-12T19:50:15.928Z,2.339994
2023-02-12T19:55:16.213Z,1.427410
2023-02-12T20:00:16.135Z,1.355650
2023-02-12T20:05:16.471Z,1.053297
2023-02-12T20:10:18.234Z,2.080484
2023-02-12T20:15:16.929Z,2.958689
2023-02-12T20:20:16.166Z,1.566125
2023-02-12T20:25:17.010Z,1.354513
2023-02-12T20:30:17.009Z,2.064157
2023-02-12T20:35:16.410Z,1.826007
2023-02-12T20:40:16.181Z,1.498446
2023-02-12T20:45:15.927Z,1.351856
2023-02-12T20:50:15.949Z,2.403447
2023-02-12T20:55:15.722Z,1.994291
2023-02-12T21:00:16.377Z,1.050682
2023-02-12T21:05:15.790Z,1.158700
2023-02-12T21:10:16.015Z,1.999903
2023-02-12T21:15:16.045Z,2.495682
2023-02-12T21:20:17.060Z,2.023907
2023-02-12T21:25:15.873Z,2.102842
2023-02-12T21:30:15.771Z,2.883242
2023-02-12T21:35:16.937Z,2.508321
2023-02-12T21:40:17.494Z,2.306496
2023-02-12T21:45:16.646Z,1.555485
2023-02-12T21:50:17.027Z,1.034297
2023-02-12T21:55:17.414Z,1.115599
2023-02-12T22:00:15.932Z,1.153297
2023-02-12T22:05:16.541Z,1.311331
2023-02-12T22:10:15.958Z,1.668117
2023-02-12T22:15:16.498Z,1.269897
2023-02-12T22:20:16.082Z,1.073304
2023-02-12T22:25:17.188Z,0.957932
2023-02-12T22:30:16.159Z,1.069971
2023-02-12T22:35:15.943Z,1.116313
2023-02-12T22:40:17.685Z,0.803897
2023-02-12T22:45:18.416Z,0.746809
2023-02-12T22:50:16.922Z,0.720302
2023-02-12T22:55:15.892Z,0.698615
2023-02-12T23:00:17.034Z,0.660791
2023-02-12T23:05:17.080Z,0.643878
2023-02-12T23:10:16.089Z,0.649902
2023-02-12T23:15:15.772Z,0.623709
2023-02-12T23:20:16.612Z,0.597853
2023-02-12T23:25:15.750Z,0.640249
2023-02-12T23:30:16.402Z,0.633142
2023-02-12T23:35:16.553Z,0.559579
2023-02-12T23:40:15.647Z,0.507424
2023-02-12T23:45:16.187Z,0.485451
2023-02-12T23:50:16.054Z,0.450644
2023-02-12T23:55:16.092Z,0.407183
